sensor_id;sensor_type;location;lat;lon;timestamp;temperature;humidity
15152;DHT22;7676;50.900;6.234;2023-01-20T00:13:02;3.90;99.90
15152;DHT22;7676;50.900;6.234;2023-01-20T00:28:05;3.80;99.90
15152;DHT22;7676;50.900;6.234;2023-01-20T00:43:07;4.00;99.90
15152;DHT22;7676;50.900;6.234;2023-01-20T00:58:10;4.00;99.90
15152;DHT22;7676;50.900;6.234;2023-01-20T01:13:12;4.00;99.90
15152;DHT22;7676;50.900;6.234;2023-01-20T01:28:15;3.90;99.90
15152;DHT22;7676;50.900;6.234;2023-01-20T01:43:25;3.70;99.90
15152;DHT22;7676;50.900;6.234;2023-01-20T01:58:31;3.60;99.90
15152;DHT22;7676;50.900;6.234;2023-01-20T02:13:36;4.10;99.90
15152;DHT22;7676;50.900;6.234;2023-01-20T02:44:26;3.70;99.90
15152;DHT22;7676;50.900;6.234;2023-01-20T02:59:33;3.60;99.90
15152;DHT22;7676;50.900;6.234;2023-01-20T03:14:38;3.70;99.90
15152;DHT22;7676;50.900;6.234;2023-01-20T03:29:40;3.80;99.90
15152;DHT22;7676;50.900;6.234;2023-01-20T04:00:03;3.90;99.90
15152;DHT22;7676;50.900;6.234;2023-01-20T04:15:12;3.80;99.90
15152;DHT22;7676;50.900;6.234;2023-01-20T04:30:16;3.70;99.90
15152;DHT22;7676;50.900;6.234;2023-01-20T04:45:19;3.70;99.90
15152;DHT22;7676;50.900;6.234;2023-01-20T05:00:22;3.10;99.90
15152;DHT22;7676;50.900;6.234;2023-01-20T05:23:26;3.00;99.90
15152;DHT22;7676;50.900;6.234;2023-01-20T05:38:28;3.50;99.90
15152;DHT22;7676;50.900;6.234;2023-01-20T05:53:31;3.40;99.90
15152;DHT22;7676;50.900;6.234;2023-01-20T06:08:34;3.30;99.90
15152;DHT22;7676;50.900;6.234;2023-01-20T06:23:37;3.50;99.90
15152;DHT22;7676;50.900;6.234;2023-01-20T06:38:41;3.30;99.90
15152;DHT22;7676;50.900;6.234;2023-01-20T06:53:43;3.20;99.90
15152;DHT22;7676;50.900;6.234;2023-01-20T07:08:46;3.00;99.90
15152;DHT22;7676;50.900;6.234;2023-01-20T07:23:48;2.90;99.90
15152;DHT22;7676;50.900;6.234;2023-01-20T07:38:52;3.10;99.90
15152;DHT22;7676;50.900;6.234;2023-01-20T07:53:54;3.10;99.90
15152;DHT22;7676;50.900;6.234;2023-01-20T08:09:00;3.20;99.90
15152;DHT22;7676;50.900;6.234;2023-01-20T08:24:03;2.90;99.90
15152;DHT22;7676;50.900;6.234;2023-01-20T08:39:09;3.00;99.90
15152;DHT22;7676;50.900;6.234;2023-01-20T08:54:13;3.30;99.90
15152;DHT22;7676;50.900;6.234;2023-01-20T09:09:17;3.30;99.90
15152;DHT22;7676;50.900;6.234;2023-01-20T09:24:20;3.30;99.90
15152;DHT22;7676;50.900;6.234;2023-01-20T09:39:23;3.30;99.90
15152;DHT22;7676;50.900;6.234;2023-01-20T09:54:50;3.10;99.90
15152;DHT22;7676;50.900;6.234;2023-01-20T10:25:46;3.20;99.90
15152;DHT22;7676;50.900;6.234;2023-01-20T10:40:59;3.30;99.90
15152;DHT22;7676;50.900;6.234;2023-01-20T11:11:23;4.00;99.90
15152;DHT22;7676;50.900;6.234;2023-01-20T11:26:36;4.00;99.90
15152;DHT22;7676;50.900;6.234;2023-01-20T11:41:39;3.40;99.90
15152;DHT22;7676;50.900;6.234;2023-01-20T11:56:43;3.50;99.90
15152;DHT22;7676;50.900;6.234;2023-01-20T12:11:57;3.60;99.90
15152;DHT22;7676;50.900;6.234;2023-01-20T12:27:01;3.00;99.90
15152;DHT22;7676;50.900;6.234;2023-01-20T12:57:28;3.00;99.90
15152;DHT22;7676;50.900;6.234;2023-01-20T13:12:47;2.90;99.90
15152;DHT22;7676;50.900;6.234;2023-01-20T13:27:53;3.40;99.90
15152;DHT22;7676;50.900;6.234;2023-01-20T13:42:55;3.50;99.90
15152;DHT22;7676;50.900;6.234;2023-01-20T13:57:58;3.90;99.90
15152;DHT22;7676;50.900;6.234;2023-01-20T14:13:08;3.90;99.90
15152;DHT22;7676;50.900;6.234;2023-01-20T14:28:17;4.00;99.90
15152;DHT22;7676;50.900;6.234;2023-01-20T14:43:21;4.30;99.90
15152;DHT22;7676;50.900;6.234;2023-01-20T14:58:23;4.30;99.90
15152;DHT22;7676;50.900;6.234;2023-01-20T15:13:27;4.10;99.90
15152;DHT22;7676;50.900;6.234;2023-01-20T15:28:44;4.00;99.90
15152;DHT22;7676;50.900;6.234;2023-01-20T15:43:47;2.80;99.90
15152;DHT22;7676;50.900;6.234;2023-01-20T15:58:51;2.30;99.90
15152;DHT22;7676;50.900;6.234;2023-01-20T16:13:53;2.20;99.90
15152;DHT22;7676;50.900;6.234;2023-01-20T16:28:57;2.80;99.90
15152;DHT22;7676;50.900;6.234;2023-01-20T16:43:59;2.60;99.90
15152;DHT22;7676;50.900;6.234;2023-01-20T16:59:02;2.20;99.90
15152;DHT22;7676;50.900;6.234;2023-01-20T17:14:07;1.80;99.90
15152;DHT22;7676;50.900;6.234;2023-01-20T17:29:10;1.30;99.90
15152;DHT22;7676;50.900;6.234;2023-01-20T17:44:12;0.80;99.90
15152;DHT22;7676;50.900;6.234;2023-01-20T17:59:15;0.80;99.90
15152;DHT22;7676;50.900;6.234;2023-01-20T18:14:17;0.40;99.90
15152;DHT22;7676;50.900;6.234;2023-01-20T18:29:20;0.60;99.90
15152;DHT22;7676;50.900;6.234;2023-01-20T18:44:22;0.40;99.90
15152;DHT22;7676;50.900;6.234;2023-01-20T18:59:24;0.30;99.90
15152;DHT22;7676;50.900;6.234;2023-01-20T19:14:27;-0.10;99.90
15152;DHT22;7676;50.900;6.234;2023-01-20T19:29:31;-0.10;99.90
15152;DHT22;7676;50.900;6.234;2023-01-20T19:44:33;0.10;99.90
15152;DHT22;7676;50.900;6.234;2023-01-20T19:59:36;0.40;99.90
15152;DHT22;7676;50.900;6.234;2023-01-20T20:14:42;0.50;99.90
15152;DHT22;7676;50.900;6.234;2023-01-20T20:29:44;2.10;99.90
15152;DHT22;7676;50.900;6.234;2023-01-20T20:44:47;1.80;99.90
15152;DHT22;7676;50.900;6.234;2023-01-20T20:59:49;1.20;99.90
15152;DHT22;7676;50.900;6.234;2023-01-20T21:15:00;-0.70;99.90
15152;DHT22;7676;50.900;6.234;2023-01-20T21:30:03;-1.00;99.90
15152;DHT22;7676;50.900;6.234;2023-01-20T21:45:06;-1.10;99.90
15152;DHT22;7676;50.900;6.234;2023-01-20T22:00:10;-0.90;99.90
15152;DHT22;7676;50.900;6.234;2023-01-20T22:15:13;-0.70;99.90
15152;DHT22;7676;50.900;6.234;2023-01-20T22:30:16;-0.40;99.90
15152;DHT22;7676;50.900;6.234;2023-01-20T22:45:19;-0.80;99.90
15152;DHT22;7676;50.900;6.234;2023-01-20T23:00:22;-0.90;99.90
15152;DHT22;7676;50.900;6.234;2023-01-20T23:15:25;-1.10;99.90
15152;DHT22;7676;50.900;6.234;2023-01-20T23:30:28;-1.00;99.90
15152;DHT22;7676;50.900;6.234;2023-01-20T23:45:31;-1.10;99.90
